Time;durP1;ratioP1;P1;durP2;ratioP2;P2;SDS_P1;SDS_P2;PMS_P1;PMS_P2;Temp;Humidity;BMP_temperature;BMP_pressure;BME280_temperature;BME280_humidity;BME280_pressure;Samples;Min_cycle;Max_cycle;Signal;HPM_P1;HPM_P2
2022/04/11 00:02:17;;;;;;;5.40;2.88;;;13.40;48.60;;;;;;5990693;29;20476;-75
2022/04/11 00:05:18;;;;;;;5.07;2.92;;;13.30;48.70;;;;;;5996064;29;20054;-75
2022/04/11 00:08:20;;;;;;;6.50;3.20;;;13.30;48.60;;;;;;5994485;29;20034;-75
2022/04/11 00:11:21;;;;;;;7.40;2.88;;;13.30;48.60;;;;;;6013523;29;20042;-74
2022/04/11 00:14:22;;;;;;;6.00;3.00;;;13.20;48.70;;;;;;6016307;29;20081;-75
2022/04/11 00:17:23;;;;;;;7.32;2.88;;;13.30;48.70;;;;;;6018812;29;20068;-75
2022/04/11 00:20:24;;;;;;;4.97;3.05;;;13.30;48.70;;;;;;5985477;29;20134;-74
2022/04/11 00:23:26;;;;;;;5.55;2.88;;;13.20;48.90;;;;;;6002139;29;20042;-74
2022/04/11 00:26:27;;;;;;;6.85;3.42;;;13.20;49.10;;;;;;6002866;29;20052;-75
2022/04/11 00:29:28;;;;;;;7.13;3.00;;;13.20;49.20;;;;;;6016853;29;20356;-74
2022/04/11 00:32:29;;;;;;;7.35;3.28;;;13.10;49.20;;;;;;5987715;29;20034;-74
2022/04/11 00:35:30;;;;;;;4.00;2.58;;;13.10;49.20;;;;;;6016701;29;20057;-75
2022/04/11 00:38:32;;;;;;;5.07;2.55;;;13.10;49.30;;;;;;6000996;29;20053;-75
2022/04/11 00:41:33;;;;;;;5.55;2.85;;;13.10;49.30;;;;;;6002652;29;20248;-74
2022/04/11 00:44:33;;;;;;;4.60;2.47;;;13.10;49.30;;;;;;5985928;29;20045;-76
2022/04/11 00:47:35;;;;;;;4.72;2.42;;;13.10;49.40;;;;;;6016110;29;20038;-75
2022/04/11 00:50:36;;;;;;;5.15;2.28;;;13.10;49.30;;;;;;6014378;29;20388;-75
2022/04/11 00:53:40;;;;;;;7.57;2.50;;;13.10;49.30;;;;;;6018059;29;20045;-75
2022/04/11 00:56:40;;;;;;;3.25;1.88;;;13.10;49.30;;;;;;6008594;29;20044;-74
2022/04/11 00:59:43;;;;;;;4.20;1.75;;;13.10;49.30;;;;;;6002173;29;20089;-75
2022/04/11 01:02:44;;;;;;;3.90;1.90;;;13.10;49.40;;;;;;6017481;29;20121;-75
2022/04/11 01:05:44;;;;;;;2.67;1.77;;;13.10;49.50;;;;;;5986704;29;20044;-75
2022/04/11 01:08:46;;;;;;;2.45;1.88;;;13.10;49.40;;;;;;6000008;29;20045;-74
2022/04/11 01:11:47;;;;;;;5.30;1.75;;;13.00;49.50;;;;;;6000692;29;20050;-75
2022/04/11 01:14:49;;;;;;;2.85;1.63;;;13.00;49.50;;;;;;5999790;29;20492;-75
2022/04/11 01:17:50;;;;;;;5.18;1.83;;;13.00;49.40;;;;;;6017013;29;20103;-75
2022/04/11 01:20:52;;;;;;;3.45;2.20;;;13.00;49.50;;;;;;6017726;29;20046;-73
2022/04/11 01:23:53;;;;;;;3.25;2.00;;;12.90;49.70;;;;;;6007136;29;20038;-74
2022/04/11 01:26:54;;;;;;;5.63;2.25;;;12.90;49.90;;;;;;6016734;29;20049;-75
2022/04/11 01:29:56;;;;;;;5.20;2.05;;;12.80;50.20;;;;;;6001334;29;20038;-74
2022/04/11 01:32:58;;;;;;;4.28;1.90;;;12.80;50.10;;;;;;6004194;29;20041;-75
2022/04/11 01:35:58;;;;;;;3.47;1.83;;;12.80;50.10;;;;;;6021042;29;20050;-74
2022/04/11 01:39:00;;;;;;;3.75;2.03;;;12.70;50.00;;;;;;6017937;29;20034;-74
2022/04/11 01:42:00;;;;;;;3.30;1.75;;;12.70;49.90;;;;;;5986072;29;20399;-74
2022/04/11 01:45:03;;;;;;;4.50;2.17;;;12.70;49.80;;;;;;6006686;29;20038;-75
2022/04/11 01:48:04;;;;;;;3.00;1.63;;;12.60;49.70;;;;;;6019459;29;20049;-75
2022/04/11 01:51:05;;;;;;;3.28;1.90;;;12.60;49.70;;;;;;5988938;29;20045;-74
2022/04/11 01:54:06;;;;;;;5.80;2.22;;;12.60;49.70;;;;;;6003370;29;20123;-74
2022/04/11 01:57:07;;;;;;;4.82;2.22;;;12.50;49.70;;;;;;6020538;29;20034;-75
2022/04/11 02:00:09;;;;;;;3.67;1.73;;;12.50;49.70;;;;;;6008147;29;20040;-75
2022/04/11 02:03:15;;;;;;;8.52;2.13;;;12.50;49.70;;;;;;6003165;29;20068;-74
2022/04/11 02:06:16;;;;;;;5.38;2.47;;;12.50;49.70;;;;;;6002039;29;20057;-73
2022/04/11 02:09:17;;;;;;;4.72;2.42;;;12.50;49.90;;;;;;6001928;29;20124;-74
2022/04/11 02:12:18;;;;;;;5.55;2.17;;;12.50;50.30;;;;;;6003135;29;20433;-75
2022/04/11 02:15:19;;;;;;;3.33;1.83;;;12.40;50.30;;;;;;6003800;29;20053;-74
2022/04/11 02:18:20;;;;;;;4.13;1.80;;;12.40;50.50;;;;;;6002420;29;20056;-74
2022/04/11 02:21:21;;;;;;;8.18;1.73;;;12.40;50.70;;;;;;6000548;29;20049;-75
2022/04/11 02:24:22;;;;;;;3.15;1.70;;;12.30;50.70;;;;;;6015603;29;20349;-74
2022/04/11 02:27:23;;;;;;;4.38;1.75;;;12.30;50.90;;;;;;6006053;29;20140;-74
2022/04/11 02:30:25;;;;;;;3.15;1.77;;;12.30;51.00;;;;;;6030342;29;20045;-73
2022/04/11 02:33:26;;;;;;;3.63;1.75;;;12.20;51.10;;;;;;6030186;29;20144;-74
2022/04/11 02:36:27;;;;;;;5.25;1.80;;;12.20;51.20;;;;;;6006803;29;20045;-74
2022/04/11 02:39:28;;;;;;;2.75;1.63;;;12.10;51.20;;;;;;6016218;29;20051;-73
2022/04/11 02:42:30;;;;;;;6.03;1.60;;;12.10;51.30;;;;;;6005628;29;20090;-75
2022/04/11 02:45:38;;;;;;;6.10;1.77;;;12.10;51.50;;;;;;6002954;29;20105;-74
2022/04/11 02:48:42;;;;;;;2.17;1.42;;;12.00;51.50;;;;;;6003000;29;20567;-73
2022/04/11 02:51:53;;;;;;;3.90;1.85;;;12.00;51.60;;;;;;5989022;29;20112;-74
2022/04/11 02:54:54;;;;;;;1.40;1.30;;;11.90;51.70;;;;;;6004733;29;20348;-73
2022/04/11 02:57:54;;;;;;;4.00;1.38;;;11.80;52.00;;;;;;6003390;29;20132;-73
2022/04/11 03:00:56;;;;;;;3.17;1.75;;;11.80;52.40;;;;;;6005716;29;20093;-75
2022/04/11 03:03:59;;;;;;;6.57;1.60;;;11.70;52.70;;;;;;6002785;29;20057;-74
2022/04/11 03:07:11;;;;;;;2.75;1.73;;;11.70;52.90;;;;;;6001844;29;20070;-75
2022/04/11 03:10:13;;;;;;;3.58;1.65;;;11.60;53.10;;;;;;6000061;29;20038;-74
2022/04/11 03:13:14;;;;;;;7.05;1.85;;;11.60;53.20;;;;;;6002388;29;20038;-74
2022/04/11 03:16:17;;;;;;;5.20;1.95;;;11.50;53.10;;;;;;5988719;29;20080;-74
2022/04/11 03:19:22;;;;;;;3.90;1.83;;;11.60;53.30;;;;;;6003828;29;20376;-75
2022/04/11 03:22:24;;;;;;;2.20;1.38;;;11.50;53.40;;;;;;5998776;29;20072;-73
2022/04/11 03:25:31;;;;;;;3.97;1.80;;;11.50;53.40;;;;;;5988186;29;20375;-75
2022/04/11 03:28:33;;;;;;;3.22;1.80;;;11.40;53.60;;;;;;5998606;29;20560;-74
2022/04/11 03:31:34;;;;;;;3.72;1.90;;;11.40;53.90;;;;;;6003735;29;20042;-74
2022/04/11 03:34:35;;;;;;;3.10;1.60;;;11.30;54.10;;;;;;5986308;29;20145;-74
2022/04/11 03:37:37;;;;;;;3.63;1.45;;;11.20;54.40;;;;;;5985415;29;20531;-74
2022/04/11 03:40:48;;;;;;;4.93;1.85;;;11.10;54.60;;;;;;6001006;29;20029;-74
2022/04/11 03:43:49;;;;;;;2.50;1.65;;;11.10;54.70;;;;;;6000449;29;20353;-74
2022/04/11 03:46:50;;;;;;;2.53;1.33;;;11.10;54.90;;;;;;5997754;29;20121;-74
2022/04/11 03:49:56;;;;;;;2.45;1.55;;;11.00;55.00;;;;;;5983115;29;20483;-74
2022/04/11 03:53:06;;;;;;;2.95;1.50;;;11.00;55.20;;;;;;6001054;29;20030;-74
2022/04/11 03:56:12;;;;;;;3.80;1.73;;;10.90;55.40;;;;;;5986755;29;20038;-74
2022/04/11 03:59:13;;;;;;;4.88;1.98;;;10.80;55.60;;;;;;6002815;29;20037;-74
2022/04/11 04:02:15;;;;;;;5.22;1.58;;;10.70;55.70;;;;;;5999516;29;20049;-74
2022/04/11 04:05:16;;;;;;;3.40;2.33;;;10.70;55.70;;;;;;6000119;29;20034;-74
2022/04/11 04:08:17;;;;;;;4.32;2.20;;;10.70;55.70;;;;;;6002123;29;20041;-74
2022/04/11 04:11:27;;;;;;;6.25;3.83;;;10.70;55.70;;;;;;6000682;29;20059;-74
2022/04/11 04:14:58;;;;;;;4.60;3.15;;;10.70;55.60;;;;;;5972151;29;20050;-74
2022/04/11 04:18:00;;;;;;;6.70;3.45;;;10.70;55.60;;;;;;5968423;29;20041;-75
2022/04/11 04:21:02;;;;;;;6.60;3.53;;;10.70;55.70;;;;;;5983865;29;20107;-74
2022/04/11 04:24:04;;;;;;;6.80;3.25;;;10.70;55.70;;;;;;5953207;29;20038;-74
2022/04/11 04:27:08;;;;;;;5.32;3.00;;;10.70;55.60;;;;;;5953049;29;20499;-73
2022/04/11 04:30:12;;;;;;;3.60;2.00;;;10.70;55.50;;;;;;5967908;29;20031;-74
2022/04/11 04:33:14;;;;;;;13.98;2.53;;;10.70;55.50;;;;;;5969608;29;20121;-74
2022/04/11 04:36:17;;;;;;;5.63;2.40;;;10.70;55.60;;;;;;5967433;29;20109;-73
2022/04/11 04:39:19;;;;;;;5.40;2.45;;;10.70;55.40;;;;;;5968744;29;20400;-74
2022/04/11 04:42:21;;;;;;;2.58;1.88;;;10.70;55.40;;;;;;5983514;29;20054;-75
2022/04/11 04:45:23;;;;;;;3.92;1.52;;;10.70;55.50;;;;;;5953484;29;20047;-74
2022/04/11 04:48:43;;;;;;;7.78;2.33;;;10.70;55.60;;;;;;5969151;29;20046;-73
2022/04/11 04:51:44;;;;;;;4.70;1.65;;;10.70;55.60;;;;;;6009703;29;20074;-74
2022/04/11 04:54:45;;;;;;;2.95;1.58;;;10.60;55.50;;;;;;5999012;29;20380;-74
2022/04/11 04:57:46;;;;;;;15.68;1.90;;;10.60;55.40;;;;;;5987451;29;20038;-73
2022/04/11 05:00:48;;;;;;;3.05;1.38;;;10.70;55.40;;;;;;5997871;29;20042;-73
2022/04/11 05:03:54;;;;;;;5.53;2.10;;;10.70;55.30;;;;;;6003504;29;20041;-73
2022/04/11 05:07:00;;;;;;;3.58;1.70;;;10.70;55.20;;;;;;5981823;29;20055;-72
2022/04/11 05:10:38;;;;;;;5.20;1.70;;;10.70;55.30;;;;;;5698214;29;20050;-74
2022/04/11 20:13:03;;;;;;;4.10;1.30;;;17.20;42.80;;;;;;5438406;29;20038;-73
2022/04/11 20:16:05;;;;;;;11.23;2.03;;;17.20;42.80;;;;;;5957263;29;20574;-72
2022/04/11 20:19:06;;;;;;;5.55;1.63;;;17.10;43.00;;;;;;5965896;29;20122;-80
2022/04/11 20:22:08;;;;;;;3.20;1.30;;;17.10;43.20;;;;;;5959447;29;20050;-72
2022/04/11 20:25:10;;;;;;;5.63;1.02;;;17.10;43.20;;;;;;5964061;29;20443;-73
2022/04/11 20:28:12;;;;;;;5.60;1.25;;;17.00;43.40;;;;;;5961697;29;20047;-73
2022/04/11 20:31:13;;;;;;;2.45;1.30;;;17.00;43.60;;;;;;5970867;29;20083;-72
2022/04/11 20:34:13;;;;;;;6.63;1.65;;;17.00;43.70;;;;;;5968260;29;20047;-72
2022/04/11 20:37:15;;;;;;;3.00;1.05;;;17.00;44.20;;;;;;5962155;29;20038;-72
2022/04/11 20:40:16;;;;;;;9.85;1.80;;;16.90;44.20;;;;;;5958893;29;20187;-71
2022/04/11 20:43:17;;;;;;;3.95;1.70;;;16.90;44.70;;;;;;5956325;29;20464;-71
2022/04/11 20:46:18;;;;;;;3.10;1.40;;;16.80;45.00;;;;;;5970947;29;20516;-71
2022/04/11 20:49:19;;;;;;;4.65;1.55;;;16.80;45.00;;;;;;5955793;29;20043;-71
2022/04/11 20:52:20;;;;;;;4.03;1.50;;;16.80;45.50;;;;;;5956119;29;20060;-71
2022/04/11 20:55:39;;;;;;;4.68;1.20;;;16.80;45.90;;;;;;5967335;29;20372;-72
2022/04/11 20:58:41;;;;;;;7.15;1.20;;;16.70;45.90;;;;;;5958079;29;20043;-71
2022/04/11 21:01:42;;;;;;;10.65;1.73;;;16.60;46.00;;;;;;5961416;29;20043;-72
2022/04/11 21:04:43;;;;;;;5.28;1.67;;;16.60;46.00;;;;;;5963755;29;20072;-73
2022/04/11 21:07:44;;;;;;;8.00;1.63;;;16.60;46.20;;;;;;5961807;29;20042;-72
2022/04/11 21:10:45;;;;;;;6.25;1.50;;;16.60;46.50;;;;;;5973892;29;20035;-72
2022/04/11 21:13:46;;;;;;;2.78;1.45;;;16.50;46.90;;;;;;5973773;29;20042;-72
2022/04/11 21:16:47;;;;;;;6.05;1.15;;;16.50;47.30;;;;;;5966904;29;20053;-71
2022/04/11 21:19:48;;;;;;;10.68;1.25;;;16.40;47.50;;;;;;5977527;29;20041;-71
2022/04/11 21:22:49;;;;;;;4.90;1.30;;;16.40;47.60;;;;;;5963493;29;20038;-71
2022/04/11 21:25:50;;;;;;;2.63;1.27;;;16.40;47.70;;;;;;5968488;29;20058;-71
2022/04/11 21:28:50;;;;;;;7.45;1.65;;;16.40;47.90;;;;;;5967557;29;20038;-72
2022/04/11 21:31:52;;;;;;;5.30;1.45;;;16.40;47.80;;;;;;5980327;29;20042;-71
2022/04/11 21:34:53;;;;;;;8.98;1.17;;;16.40;47.90;;;;;;5965416;29;20030;-72
2022/04/11 21:37:54;;;;;;;4.10;1.13;;;16.40;48.10;;;;;;5966614;29;20030;-71
2022/04/11 21:40:56;;;;;;;3.75;1.15;;;16.40;48.00;;;;;;5964930;29;20071;-71
2022/04/11 21:43:57;;;;;;;8.77;1.58;;;16.40;48.20;;;;;;5982128;29;20138;-71
2022/04/11 21:46:57;;;;;;;4.15;1.02;;;16.30;48.30;;;;;;5965830;29;20035;-71
2022/04/11 21:49:58;;;;;;;6.72;1.30;;;16.40;48.30;;;;;;5967841;29;20504;-71
2022/04/11 21:52:59;;;;;;;7.28;1.33;;;16.30;48.30;;;;;;5985905;29;20111;-71
2022/04/11 21:56:02;;;;;;;9.05;2.03;;;16.30;48.30;;;;;;5985957;29;20038;-71
2022/04/11 21:59:03;;;;;;;14.07;1.40;;;16.30;48.30;;;;;;5979093;29;20393;-72
2022/04/11 22:02:05;;;;;;;5.07;1.25;;;16.30;48.40;;;;;;5985978;29;20038;-72
2022/04/11 22:05:06;;;;;;;10.45;1.48;;;16.30;48.40;;;;;;5987305;29;20046;-71
2022/04/11 22:08:07;;;;;;;5.40;1.40;;;16.30;48.50;;;;;;5986595;29;20065;-72
2022/04/11 22:11:11;;;;;;;2.40;1.10;;;16.20;48.70;;;;;;5986600;29;20051;-72
2022/04/11 22:14:12;;;;;;;4.72;1.17;;;16.20;48.70;;;;;;5971213;29;20050;-72
2022/04/11 22:17:13;;;;;;;2.90;1.17;;;16.20;48.80;;;;;;5986576;29;20089;-73
2022/04/11 22:20:14;;;;;;;5.20;1.30;;;16.20;48.70;;;;;;5986190;29;20042;-73
2022/04/11 22:23:15;;;;;;;6.90;1.38;;;16.20;48.80;;;;;;5985623;29;20078;-73
2022/04/11 22:26:16;;;;;;;8.13;1.05;;;16.20;48.80;;;;;;5992855;29;20050;-73
2022/04/11 22:29:17;;;;;;;12.82;1.48;;;16.20;48.70;;;;;;5972623;29;20051;-73
2022/04/11 22:32:18;;;;;;;6.65;1.20;;;16.20;48.70;;;;;;5986186;29;20049;-72
2022/04/11 22:35:19;;;;;;;2.38;1.02;;;16.10;48.70;;;;;;5986636;29;20054;-72
2022/04/11 22:38:20;;;;;;;4.05;1.02;;;16.10;48.70;;;;;;5986613;29;20042;-73
2022/04/11 22:41:20;;;;;;;4.85;1.52;;;16.10;48.90;;;;;;5986617;29;20126;-73
2022/04/11 22:44:21;;;;;;;7.18;1.38;;;16.00;48.80;;;;;;5973207;29;20190;-72
2022/04/11 22:47:22;;;;;;;4.38;0.90;;;16.00;48.70;;;;;;5985343;29;20057;-73
2022/04/11 22:50:23;;;;;;;9.57;1.50;;;16.00;48.80;;;;;;5986022;29;20069;-73
2022/04/11 22:53:24;;;;;;;4.53;1.20;;;15.90;48.80;;;;;;5970661;29;20133;-73
2022/04/11 22:56:25;;;;;;;5.55;1.00;;;15.90;48.80;;;;;;5985671;29;20043;-72
2022/04/11 22:59:26;;;;;;;5.85;1.30;;;15.90;48.80;;;;;;5994325;29;20113;-72
2022/04/11 23:02:27;;;;;;;3.40;1.17;;;15.90;48.80;;;;;;5985171;29;20425;-73
2022/04/11 23:05:28;;;;;;;5.10;1.15;;;15.80;48.70;;;;;;5985056;29;20040;-73
2022/04/11 23:08:29;;;;;;;5.55;1.30;;;15.80;48.60;;;;;;5978567;29;20042;-72
2022/04/11 23:11:29;;;;;;;5.90;1.20;;;15.80;48.60;;;;;;5983604;29;20589;-73
2022/04/11 23:14:30;;;;;;;2.83;1.25;;;15.80;48.50;;;;;;5969413;29;20042;-72
2022/04/11 23:17:31;;;;;;;4.55;1.13;;;15.80;48.50;;;;;;5985310;29;20444;-73
2022/04/11 23:20:32;;;;;;;6.15;0.80;;;15.80;48.40;;;;;;5992299;29;20030;-73
2022/04/11 23:23:33;;;;;;;5.35;1.05;;;15.80;48.40;;;;;;5986489;29;20070;-72
2022/04/11 23:26:34;;;;;;;2.60;1.15;;;15.70;48.20;;;;;;5969308;29;20053;-73
2022/04/11 23:29:35;;;;;;;9.70;1.10;;;15.70;48.10;;;;;;5985965;29;20460;-72
2022/04/11 23:32:35;;;;;;;7.03;1.10;;;15.80;48.00;;;;;;5985970;29;20437;-72
2022/04/11 23:35:37;;;;;;;9.00;2.35;;;15.80;47.80;;;;;;5985983;29;20066;-73
2022/04/11 23:38:38;;;;;;;3.67;0.77;;;15.80;47.60;;;;;;5985268;29;20069;-72
2022/04/11 23:41:39;;;;;;;4.25;1.08;;;15.80;47.50;;;;;;5985342;29;20046;-73
2022/04/11 23:44:40;;;;;;;5.10;0.90;;;15.70;47.30;;;;;;5991911;29;20042;-73
2022/04/11 23:47:41;;;;;;;4.05;1.00;;;15.70;47.20;;;;;;5969077;29;20046;-73
2022/04/11 23:50:42;;;;;;;5.85;1.13;;;15.70;47.20;;;;;;5982745;29;20042;-72
2022/04/11 23:53:42;;;;;;;7.13;1.08;;;15.60;47.30;;;;;;5984161;29;20038;-72
2022/04/11 23:56:43;;;;;;;8.93;1.60;;;15.60;47.30;;;;;;5959368;29;20098;-73
2022/04/11 23:59:44;;;;;;;5.20;1.30;;;15.50;47.40;;;;;;5984961;29;20499;-73
